Time;durP1;ratioP1;P1;durP2;ratioP2;P2;SDS_P1;SDS_P2;PMS_P1;PMS_P2;Temp;Humidity;BMP_temperature;BMP_pressure;BME280_temperature;BME280_humidity;BME280_pressure;Samples;Min_cycle;Max_cycle;Signal;HPM_P1;HPM_P2
2022/11/15 00:01:22;;;;;;;2.55;1.10;;;;;;;2.97;38.50;100639.09;6082242;23;20018;-80
2022/11/15 00:04:07;;;;;;;1.50;0.80;;;;;;;2.95;38.99;100630.44;6075172;23;20022;-79
2022/11/15 00:06:53;;;;;;;4.60;1.10;;;;;;;3.03;38.61;100646.13;6100252;23;20022;-82
2022/11/15 00:09:37;;;;;;;1.67;0.85;;;;;;;2.85;39.42;100625.78;6100999;23;20490;-79
2022/11/15 00:12:22;;;;;;;4.97;1.70;;;;;;;2.80;38.86;100609.31;6076227;23;20077;-80
2022/11/15 00:15:07;;;;;;;2.50;1.13;;;;;;;2.95;38.94;100626.97;6076429;23;20018;-79
2022/11/15 00:17:51;;;;;;;2.65;1.30;;;;;;;3.05;38.96;100633.31;6082187;23;20063;-79
2022/11/15 00:20:36;;;;;;;2.92;1.90;;;;;;;2.93;39.15;100611.50;6077459;23;20046;-80
2022/11/15 00:23:21;;;;;;;4.95;1.00;;;;;;;3.20;39.00;100659.56;6058844;23;20025;-80
2022/11/15 00:26:06;;;;;;;5.82;1.33;;;;;;;3.23;38.65;100645.94;6124019;23;20094;-78
2022/11/15 00:28:52;;;;;;;2.67;1.30;;;;;;;3.29;39.10;100644.47;6122903;23;20010;-78
2022/11/15 00:31:37;;;;;;;6.30;1.45;;;;;;;3.15;39.00;100631.13;6086808;23;20027;-77
2022/11/15 00:34:21;;;;;;;2.78;1.08;;;;;;;2.88;39.09;100600.19;6121614;23;20099;-79
2022/11/15 00:37:06;;;;;;;3.97;1.25;;;;;;;3.07;38.76;100635.13;6102651;23;20085;-78
2022/11/15 00:39:51;;;;;;;4.60;1.20;;;;;;;2.93;38.84;100637.22;6102699;23;20046;-80
2022/11/15 00:42:36;;;;;;;2.33;1.10;;;;;;;2.75;39.09;100613.44;6099425;23;20002;-78
2022/11/15 00:45:23;;;;;;;2.25;0.93;;;;;;;2.84;38.89;100626.59;6122516;23;20070;-81
2022/11/15 00:48:09;;;;;;;3.22;1.33;;;;;;;2.62;38.49;100583.84;6123281;23;20050;-77
2022/11/15 00:50:54;;;;;;;3.22;1.25;;;;;;;2.85;38.92;100610.34;6056119;23;19999;-78
2022/11/15 00:53:38;;;;;;;1.33;0.93;;;;;;;2.98;38.09;100630.53;6101712;23;20091;-80
2022/11/15 00:56:23;;;;;;;2.88;1.35;;;;;;;2.91;38.11;100604.53;6085662;23;20014;-81
2022/11/15 00:59:08;;;;;;;2.90;1.05;;;;;;;2.96;37.68;100606.47;6078945;23;20025;-79
2022/11/15 01:01:52;;;;;;;3.90;1.00;;;;;;;3.05;38.06;100599.88;6120007;23;20018;-76
2022/11/15 01:04:36;;;;;;;3.13;1.20;;;;;;;3.06;38.19;100606.78;6093714;23;20049;-76
2022/11/15 01:07:21;;;;;;;2.78;1.20;;;;;;;2.87;37.83;100575.28;6121907;23;20003;-79
2022/11/15 01:10:06;;;;;;;1.88;1.65;;;;;;;2.89;38.02;100567.63;6099518;23;20049;-78
2022/11/15 01:12:51;;;;;;;1.35;0.95;;;;;;;2.95;37.96;100571.31;6118987;23;20002;-76
2022/11/15 01:15:40;;;;;;;1.85;1.00;;;;;;;2.90;37.59;100566.78;6096203;23;20018;-78
2022/11/15 01:18:25;;;;;;;2.47;0.95;;;;;;;2.89;38.10;100570.19;6071491;23;20107;-78
2022/11/15 01:21:15;;;;;;;1.38;0.93;;;;;;;2.93;37.81;100579.75;6071277;23;20066;-80
2022/11/15 01:24:00;;;;;;;4.70;1.27;;;;;;;2.96;37.72;100578.19;6071449;23;20071;-79
2022/11/15 01:26:44;;;;;;;5.72;1.20;;;;;;;2.82;37.50;100564.84;6081276;23;20018;-78
2022/11/15 01:29:29;;;;;;;3.00;1.40;;;;;;;3.00;37.48;100592.03;6101252;23;20015;-79
2022/11/15 01:32:15;;;;;;;3.05;1.25;;;;;;;2.78;37.47;100549.25;6100353;23;20061;-82
2022/11/15 01:34:59;;;;;;;5.78;1.60;;;;;;;3.01;37.52;100579.19;6101114;23;20077;-81
2022/11/15 01:37:43;;;;;;;9.88;1.70;;;;;;;2.89;37.96;100559.91;6079997;23;20085;-81
2022/11/15 01:40:28;;;;;;;2.17;1.50;;;;;;;2.95;38.07;100561.00;6110348;23;20042;-78
2022/11/15 01:43:39;;;;;;;3.92;1.13;;;;;;;2.97;37.73;100574.81;6081303;23;20018;-81
2022/11/15 01:46:26;;;;;;;3.70;1.63;;;;;;;2.95;37.53;100573.88;6075117;23;20069;-81
2022/11/15 01:49:16;;;;;;;2.60;1.40;;;;;;;2.96;37.84;100567.91;6099800;23;20049;-80
2022/11/15 01:52:03;;;;;;;6.85;1.42;;;;;;;2.96;37.79;100567.03;6100801;23;20045;-79
2022/11/15 01:54:53;;;;;;;4.32;1.90;;;;;;;2.78;37.76;100549.25;6102996;23;20018;-77
2022/11/15 01:57:42;;;;;;;3.33;1.38;;;;;;;2.87;37.81;100570.16;6101728;23;20022;-78
2022/11/15 02:00:29;;;;;;;2.35;1.30;;;;;;;2.76;38.06;100558.63;6077584;23;20046;-78
2022/11/15 02:03:14;;;;;;;3.28;1.40;;;;;;;2.83;38.11;100568.28;6061517;23;20022;-81
2022/11/15 02:05:59;;;;;;;3.15;1.58;;;;;;;2.81;37.97;100575.06;6109391;23;20050;-80
2022/11/15 02:08:44;;;;;;;5.75;1.40;;;;;;;2.53;38.06;100523.56;6056285;23;20026;-80
2022/11/15 02:11:29;;;;;;;4.53;1.77;;;;;;;2.68;38.61;100548.94;6083320;23;20018;-78
2022/11/15 02:14:18;;;;;;;4.88;1.42;;;;;;;2.79;38.52;100566.41;6108565;23;20161;-81
2022/11/15 02:17:20;;;;;;;2.67;1.33;;;;;;;2.48;38.69;100509.69;6108972;23;20022;-79
2022/11/15 02:20:19;;;;;;;;;;;;;;;2.82;38.08;100564.84;6107728;23;20042;-78
2022/11/15 02:23:28;;;;;;;1.67;1.17;;;;;;;2.73;38.64;100564.53;6084385;23;19913;-76
2022/11/15 02:26:18;;;;;;;3.10;1.08;;;;;;;2.67;38.16;100572.91;6110728;23;20018;-77
2022/11/15 02:29:20;;;;;;;2.00;0.90;;;;;;;2.49;38.72;100538.84;6112973;23;20029;-78
2022/11/15 02:32:18;;;;;;;4.00;0.95;;;;;;;2.57;38.35;100545.09;6085440;23;20026;-78
2022/11/15 02:35:05;;;;;;;1.60;1.00;;;;;;;2.68;38.72;100558.34;6098425;23;20013;-81
2022/11/15 02:37:59;;;;;;;3.60;1.10;;;;;;;2.47;38.66;100525.91;6075770;23;20018;-80
2022/11/15 02:41:02;;;;;;;3.15;1.20;;;;;;;2.62;38.84;100553.84;6097132;23;20015;-79
2022/11/15 02:43:56;;;;;;;2.65;0.98;;;;;;;2.63;38.52;100545.34;6077710;23;20464;-81
2022/11/15 02:49:54;;;;;;;7.15;2.75;;;;;;;2.11;39.39;100460.44;6073575;23;20029;-80
2022/11/15 02:52:39;;;;;;;6.47;1.33;;;;;;;2.51;38.73;100543.19;6080339;23;20052;-80
2022/11/15 02:55:29;;;;;;;4.13;1.27;;;;;;;2.36;38.89;100528.09;6079950;23;20018;-82
2022/11/15 02:58:38;;;;;;;2.35;1.10;;;;;;;2.48;39.51;100550.78;6077988;23;20018;-79
2022/11/15 03:01:58;;;;;;;1.63;0.85;;;;;;;2.48;39.52;100555.94;6100933;23;20017;-79
2022/11/15 03:05:12;;;;;;;2.67;1.00;;;;;;;2.50;39.54;100553.44;6074211;23;20018;-78
2022/11/15 03:08:11;;;;;;;2.92;1.00;;;;;;;2.44;39.47;100537.78;6102093;23;20014;-80
2022/11/15 03:11:13;;;;;;;3.28;0.90;;;;;;;2.39;39.53;100543.63;6100305;23;20417;-79
2022/11/15 03:14:21;;;;;;;3.10;1.00;;;;;;;2.22;39.88;100513.91;6079007;23;20022;-80
2022/11/15 03:17:18;;;;;;;2.95;0.95;;;;;;;2.40;39.32;100536.81;6077475;23;20438;-80
2022/11/15 03:20:17;;;;;;;2.58;1.35;;;;;;;2.27;40.05;100525.22;6087551;23;20074;-80
2022/11/15 03:23:08;;;;;;;3.50;1.40;;;;;;;2.20;39.36;100524.13;6109644;23;20077;-79
2022/11/15 03:25:56;;;;;;;4.78;0.93;;;;;;;2.16;40.02;100529.06;6105783;23;20532;-80
2022/11/15 03:28:57;;;;;;;3.75;0.80;;;;;;;2.15;39.47;100533.34;6074792;23;20018;-80
2022/11/15 03:31:49;;;;;;;3.42;0.98;;;;;;;1.75;39.85;100465.97;6074962;23;20042;-80
2022/11/15 03:34:46;;;;;;;1.50;1.20;;;;;;;2.13;40.26;100518.69;6079904;23;20049;-78
2022/11/15 03:37:48;;;;;;;3.25;1.00;;;;;;;2.13;40.43;100526.38;6075111;23;20069;-80
2022/11/15 03:40:39;;;;;;;7.85;1.13;;;;;;;2.11;40.78;100518.63;6073668;23;20015;-82
2022/11/15 03:43:33;;;;;;;3.00;1.20;;;;;;;2.11;40.12;100528.91;6053342;23;20018;-78
2022/11/15 03:46:37;;;;;;;4.07;1.05;;;;;;;2.06;40.68;100526.19;6099062;23;20361;-79
2022/11/15 03:49:33;;;;;;;1.67;0.93;;;;;;;1.93;40.51;100498.28;6076887;23;20018;-80
2022/11/15 03:52:20;;;;;;;3.17;1.10;;;;;;;2.05;40.43;100515.84;6099691;23;20038;-80
2022/11/15 03:55:16;;;;;;;3.95;1.20;;;;;;;2.19;40.46;100532.66;6098797;23;20018;-79
2022/11/15 03:58:02;;;;;;;3.67;1.52;;;;;;;1.90;40.17;100493.91;6101225;23;20025;-82
2022/11/15 04:00:50;;;;;;;5.00;1.20;;;;;;;2.21;40.58;100536.13;6101826;23;20041;-79
2022/11/15 04:03:35;;;;;;;3.83;1.20;;;;;;;1.54;40.31;100417.31;6082979;23;20029;-82
2022/11/15 04:06:21;;;;;;;4.30;1.10;;;;;;;2.33;40.51;100538.25;6114106;23;20014;-78
2022/11/15 04:09:05;;;;;;;3.90;1.13;;;;;;;2.29;40.51;100533.84;6099829;23;20041;-80
2022/11/15 04:11:53;;;;;;;5.13;1.08;;;;;;;2.32;40.41;100533.09;6053654;23;20059;-80
2022/11/15 04:15:06;;;;;;;2.80;0.90;;;;;;;2.23;40.42;100525.91;6074992;23;20018;-82
2022/11/15 04:17:56;;;;;;;7.30;2.20;;;;;;;2.20;40.04;100510.41;6103771;23;20018;-78
2022/11/15 04:24:11;;;;;;;7.15;1.20;;;;;;;2.34;40.13;100522.03;6114182;23;20053;-79
2022/11/15 04:27:03;;;;;;;5.55;1.38;;;;;;;2.16;39.85;100495.69;6113260;23;20014;-79
2022/11/15 04:29:48;;;;;;;3.97;1.35;;;;;;;2.01;40.20;100471.22;6066600;23;20038;-80
2022/11/15 04:32:33;;;;;;;3.05;1.13;;;;;;;2.32;39.94;100517.66;6106501;23;20026;-78
2022/11/15 04:35:17;;;;;;;2.97;1.02;;;;;;;2.01;39.52;100460.94;6110694;23;20018;-80
2022/11/15 04:38:06;;;;;;;5.78;1.40;;;;;;;2.34;39.98;100509.19;6109932;23;20014;-79
2022/11/15 04:40:51;;;;;;;5.13;1.10;;;;;;;2.14;39.84;100499.88;6113969;23;20035;-78
2022/11/15 04:43:35;;;;;;;9.00;1.92;;;;;;;1.94;40.43;100467.56;6122495;23;20113;-80
2022/11/15 04:46:21;;;;;;;16.05;2.22;;;;;;;2.18;40.47;100509.47;6094352;23;20049;-80
2022/11/15 04:49:05;;;;;;;7.80;1.38;;;;;;;1.99;40.11;100471.97;6094030;23;20018;-81
2022/11/15 04:51:50;;;;;;;11.23;2.28;;;;;;;2.21;40.12;100507.88;6092883;23;20014;-80
2022/11/15 04:54:35;;;;;;;2.85;1.30;;;;;;;2.11;39.95;100478.41;6116600;23;20022;-80
2022/11/15 04:57:20;;;;;;;7.13;1.40;;;;;;;2.31;40.08;100501.41;6083101;23;20018;-81
2022/11/15 05:00:07;;;;;;;3.00;1.10;;;;;;;2.29;40.14;100499.56;6082467;23;20026;-78
2022/11/15 05:05:57;;;;;;;7.65;1.48;;;;;;;2.06;39.69;100449.16;6113437;23;20014;-82
2022/11/15 05:08:41;;;;;;;7.28;1.40;;;;;;;2.22;39.88;100454.81;6111105;23;20018;-81
2022/11/15 05:11:30;;;;;;;7.82;1.50;;;;;;;2.39;39.60;100484.53;6106903;23;20089;-81
2022/11/15 05:14:16;;;;;;;6.60;1.40;;;;;;;2.14;39.84;100441.72;6100972;23;20056;-81
2022/11/15 05:17:00;;;;;;;4.95;1.30;;;;;;;2.36;39.94;100476.72;6106517;23;19998;-81
2022/11/15 05:19:44;;;;;;;2.28;1.05;;;;;;;2.33;39.71;100462.91;6108835;23;20021;-81
2022/11/15 05:22:30;;;;;;;9.27;1.58;;;;;;;2.45;39.96;100486.44;6099646;23;20019;-82
2022/11/15 05:25:15;;;;;;;2.47;1.38;;;;;;;2.48;39.83;100473.72;6099053;23;20022;-81
2022/11/15 05:27:59;;;;;;;2.42;1.42;;;;;;;2.52;39.35;100485.84;6053273;23;20022;-78
2022/11/15 05:30:44;;;;;;;6.93;1.40;;;;;;;2.56;39.79;100492.84;6053198;23;20023;-80
2022/11/15 05:33:29;;;;;;;2.40;1.40;;;;;;;2.38;39.64;100451.97;6052581;23;20022;-83
2022/11/15 05:36:24;;;;;;;4.45;1.42;;;;;;;2.56;39.74;100482.56;6098243;23;20018;-80
2022/11/15 05:39:09;;;;;;;4.75;1.48;;;;;;;2.43;39.67;100464.09;6076937;23;20022;-80
2022/11/15 05:42:12;;;;;;;6.95;1.80;;;;;;;2.54;39.24;100493.59;6099043;23;20018;-80
2022/11/15 05:44:58;;;;;;;3.10;1.38;;;;;;;2.53;39.36;100489.31;6074312;23;20025;-81
2022/11/15 05:47:44;;;;;;;5.10;1.33;;;;;;;2.55;39.71;100485.06;6073261;23;20025;-82
2022/11/15 05:50:29;;;;;;;6.90;2.17;;;;;;;2.16;39.07;100409.28;6054362;23;20014;-81
2022/11/15 05:53:17;;;;;;;23.67;12.70;;;;;;;2.38;39.72;100444.25;6105140;23;20018;-80
2022/11/15 05:56:05;;;;;;;3.70;1.83;;;;;;;2.57;39.77;100468.00;6101934;23;20018;-80
2022/11/15 05:58:56;;;;;;;7.57;1.80;;;;;;;2.56;39.36;100467.16;6110249;23;20074;-81
2022/11/15 06:01:42;;;;;;;5.93;1.70;;;;;;;2.40;39.29;100465.75;6090293;23;20025;-80
2022/11/15 06:04:48;;;;;;;8.82;1.30;;;;;;;2.01;39.30;100390.72;6113352;23;20018;-81
2022/11/15 06:07:42;;;;;;;6.30;1.60;;;;;;;1.89;39.65;100381.78;6106303;23;20475;-80
2022/11/15 06:10:31;;;;;;;7.15;1.80;;;;;;;1.92;39.30;100383.59;6057884;23;20022;-81
2022/11/15 06:13:16;;;;;;;7.22;1.55;;;;;;;2.33;38.99;100437.22;6070460;23;20025;-81
2022/11/15 06:16:06;;;;;;;8.02;1.77;;;;;;;2.54;39.04;100437.06;6078308;23;20057;-81
2022/11/15 06:18:53;;;;;;;6.47;1.52;;;;;;;2.86;39.11;100463.00;6072987;23;20025;-81
2022/11/15 06:21:41;;;;;;;5.22;1.70;;;;;;;3.03;38.94;100452.38;6073799;23;20492;-80
2022/11/15 06:24:25;;;;;;;6.25;1.60;;;;;;;2.92;39.00;100424.63;6097978;23;20048;-83
2022/11/15 06:27:11;;;;;;;2.95;1.17;;;;;;;3.00;38.60;100412.03;6100012;23;20018;-79
2022/11/15 06:29:58;;;;;;;6.22;1.48;;;;;;;3.23;38.93;100442.72;6105989;23;20022;-83
2022/11/15 06:32:46;;;;;;;5.05;1.55;;;;;;;2.77;38.98;100360.75;6075359;23;20018;-81
2022/11/15 06:35:35;;;;;;;5.88;1.70;;;;;;;3.34;38.87;100443.06;6074057;23;20017;-79
2022/11/15 06:38:23;;;;;;;4.93;1.83;;;;;;;3.22;38.55;100413.56;6099099;23;20478;-82
2022/11/15 06:41:26;;;;;;;6.05;2.08;;;;;;;2.39;39.07;100267.91;6058534;23;20015;-82
2022/11/15 06:44:11;;;;;;;9.32;2.25;;;;;;;3.19;38.11;100412.59;6101530;23;20270;-81
2022/11/15 06:46:55;;;;;;;5.03;2.35;;;;;;;2.88;39.04;100385.91;6075243;23;20097;-79
2022/11/15 06:49:40;;;;;;;8.63;2.10;;;;;;;2.88;38.82;100409.94;6076982;23;20022;-80
2022/11/15 06:52:33;;;;;;;11.88;2.38;;;;;;;2.76;38.79;100409.56;6080498;23;20048;-80
2022/11/15 06:55:20;;;;;;;7.70;2.13;;;;;;;2.65;38.94;100399.78;6111599;23;20018;-80
2022/11/15 06:58:08;;;;;;;11.10;2.25;;;;;;;2.55;39.13;100395.13;6092987;23;20090;-81
2022/11/15 07:00:53;;;;;;;8.77;2.47;;;;;;;2.34;38.72;100351.66;6109455;23;20070;-81
2022/11/15 07:03:41;;;;;;;6.88;1.50;;;;;;;2.79;39.26;100428.50;6099350;23;20019;-79
2022/11/15 07:06:26;;;;;;;11.32;2.40;;;;;;;2.31;39.15;100362.69;6079171;23;20161;-80
2022/11/15 07:09:10;;;;;;;4.57;2.00;;;;;;;2.61;39.11;100413.34;6097936;23;20384;-78
2022/11/15 07:11:55;;;;;;;5.43;1.73;;;;;;;2.37;38.98;100367.16;6097278;23;20025;-81
2022/11/15 07:14:39;;;;;;;5.70;1.40;;;;;;;2.47;38.96;100370.91;6099128;23;20018;-80
2022/11/15 07:17:24;;;;;;;7.45;2.20;;;;;;;2.68;39.46;100392.16;6099701;23;20014;-80
2022/11/15 07:20:09;;;;;;;6.78;1.45;;;;;;;2.64;39.21;100386.88;6073067;23;20018;-80
2022/11/15 07:23:01;;;;;;;6.15;1.90;;;;;;;2.75;38.83;100448.94;6102321;23;20029;-80
2022/11/15 07:25:45;;;;;;;;;;;;;;;2.75;39.30;100428.38;6104012;23;20018;-81
2022/11/15 07:28:30;;;;;;;3.83;1.50;;;;;;;2.67;39.48;100416.13;6055033;23;19920;-82
2022/11/15 07:31:15;;;;;;;7.05;2.00;;;;;;;2.70;39.73;100418.81;6054742;23;20077;-82
2022/11/15 07:34:00;;;;;;;8.32;1.50;;;;;;;2.75;39.48;100411.22;6078242;23;20022;-80
2022/11/15 07:36:45;;;;;;;7.55;2.17;;;;;;;2.51;39.09;100370.19;6101532;23;20468;-81
2022/11/15 07:39:29;;;;;;;5.53;1.92;;;;;;;2.69;39.86;100400.75;6060538;23;20018;-81
2022/11/15 07:45:17;;;;;;;14.50;2.30;;;;;;;1.35;39.40;100192.63;6076130;23;20114;-81
2022/11/15 07:48:02;;;;;;;6.70;1.70;;;;;;;2.38;39.15;100341.50;6100432;23;20495;-81
2022/11/15 07:50:47;;;;;;;11.57;2.08;;;;;;;2.72;39.42;100400.84;6054647;23;20041;-81
2022/11/15 07:53:32;;;;;;;13.00;1.90;;;;;;;2.30;39.49;100327.56;6081452;23;20018;-79
2022/11/15 07:56:16;;;;;;;9.48;1.73;;;;;;;2.59;39.26;100367.88;6078339;23;20022;-78
2022/11/15 07:59:01;;;;;;;4.30;1.40;;;;;;;2.41;39.30;100344.19;6099796;23;20018;-79
2022/11/15 08:01:47;;;;;;;5.20;1.85;;;;;;;2.62;39.37;100383.41;6053512;23;20025;-79
2022/11/15 08:04:33;;;;;;;9.15;1.77;;;;;;;2.22;39.49;100305.88;6079425;23;20029;-80
2022/11/15 08:07:17;;;;;;;8.80;1.92;;;;;;;2.65;39.93;100374.06;6101241;23;20025;-80
2022/11/15 08:10:03;;;;;;;8.35;1.88;;;;;;;2.44;39.58;100347.69;6082194;23;20029;-80
2022/11/15 08:12:56;;;;;;;5.15;1.60;;;;;;;2.39;39.89;100339.84;6053814;23;20425;-80
2022/11/15 08:15:41;;;;;;;3.95;1.70;;;;;;;2.81;40.01;100369.41;6099512;23;20078;-82
2022/11/15 08:18:26;;;;;;;9.73;2.20;;;;;;;2.40;39.77;100278.22;6079729;23;20121;-81
2022/11/15 08:21:14;;;;;;;6.30;2.20;;;;;;;3.03;39.11;100375.22;6086087;23;20019;-80
2022/11/15 08:23:59;;;;;;;5.05;1.27;;;;;;;3.05;39.11;100360.72;6076966;23;20022;-82
2022/11/15 08:26:44;;;;;;;5.85;1.27;;;;;;;2.94;39.73;100361.28;6098964;23;20018;-81
2022/11/15 08:29:28;;;;;;;5.88;1.67;;;;;;;2.56;39.36;100304.38;6074310;23;20101;-79
2022/11/15 08:32:13;;;;;;;6.80;1.63;;;;;;;2.89;39.44;100337.13;6104479;23;20022;-80
2022/11/15 08:34:57;;;;;;;17.45;2.00;;;;;;;3.20;39.25;100361.19;6080017;23;20025;-83
2022/11/15 08:37:42;;;;;;;8.15;1.52;;;;;;;2.73;39.68;100237.25;6058792;23;20022;-79
2022/11/15 08:40:26;;;;;;;3.47;1.67;;;;;;;3.30;38.96;100316.91;6099808;23;20045;-79
2022/11/15 08:43:11;;;;;;;4.07;1.50;;;;;;;3.38;38.95;100324.00;6103740;23;20018;-81
2022/11/15 08:45:57;;;;;;;10.68;1.50;;;;;;;3.56;38.92;100332.22;6080308;23;20018;-80
2022/11/15 08:48:41;;;;;;;9.48;1.80;;;;;;;3.65;38.99;100323.88;6055503;23;20025;-80
2022/11/15 08:51:26;;;;;;;3.90;1.50;;;;;;;3.80;38.89;100340.56;6074084;23;20022;-79
2022/11/15 08:54:11;;;;;;;2.83;1.70;;;;;;;3.58;38.80;100284.25;6063291;23;20022;-79
2022/11/15 08:56:56;;;;;;;10.57;1.77;;;;;;;3.96;38.27;100329.00;6060533;23;20025;-82
2022/11/15 08:59:40;;;;;;;6.80;2.15;;;;;;;3.93;38.56;100288.59;6077345;23;20160;-82
2022/11/15 09:02:25;;;;;;;7.57;1.95;;;;;;;4.20;38.28;100337.38;6076256;23;20014;-78
2022/11/15 09:05:10;;;;;;;8.77;1.85;;;;;;;4.24;37.99;100327.16;6081421;23;20029;-83
2022/11/15 09:08:01;;;;;;;3.75;1.40;;;;;;;3.68;38.59;100233.88;6077333;23;20022;-81
2022/11/15 09:11:10;;;;;;;10.10;2.42;;;;;;;3.48;37.68;100230.78;6046737;23;20018;-81
2022/11/15 09:13:58;;;;;;;7.20;1.92;;;;;;;2.86;38.22;100152.81;6101551;23;20018;-83
2022/11/15 09:16:43;;;;;;;3.72;1.67;;;;;;;3.71;37.96;100285.47;6059176;23;20098;-83
2022/11/15 09:19:30;;;;;;;12.15;2.00;;;;;;;2.67;38.26;100105.16;6061731;23;20149;-83
2022/11/15 09:22:17;;;;;;;8.75;2.22;;;;;;;3.33;38.47;100231.22;6064822;23;20018;-82
2022/11/15 09:25:03;;;;;;;10.73;2.15;;;;;;;3.25;38.17;100218.16;6094452;23;20117;-82
2022/11/15 09:28:23;;;;;;;7.95;2.58;;;;;;;3.55;38.40;100309.91;6054064;23;20046;-80
2022/11/15 09:31:08;;;;;;;7.68;1.92;;;;;;;2.46;38.88;100130.25;6092585;23;20022;-80
2022/11/15 09:34:00;;;;;;;9.02;2.08;;;;;;;2.64;38.72;100160.75;6072090;23;20046;-83
2022/11/15 09:36:49;;;;;;;3.67;1.98;;;;;;;3.00;38.71;100227.75;6087459;23;20018;-83
2022/11/15 09:39:43;;;;;;;4.03;1.60;;;;;;;1.92;38.44;100058.47;6089155;23;20018;-81
2022/11/15 09:43:13;;;;;;;6.95;1.60;;;;;;;2.60;38.47;100170.03;6089777;23;20045;-83
2022/11/15 09:46:14;;;;;;;6.72;2.03;;;;;;;3.44;39.07;100275.25;6084178;23;20441;-81
2022/11/15 09:49:09;;;;;;;6.30;1.58;;;;;;;1.79;39.14;100012.72;6057652;23;20018;-83
2022/11/15 09:52:04;;;;;;;13.70;2.40;;;;;;;2.78;39.07;100177.44;6075371;23;20073;-81
2022/11/15 09:54:53;;;;;;;8.88;1.95;;;;;;;2.75;39.16;100158.50;6102301;23;20357;-79
2022/11/15 09:58:21;;;;;;;5.25;1.80;;;;;;;2.04;38.51;100037.44;6059841;23;20018;-79
2022/11/15 10:00:57;;;;;;;7.40;1.70;;;;;;;3.53;38.88;100280.66;5936789;24;20015;-82
2022/11/15 10:04:11;;;;;;;7.97;1.70;;;;;;;3.49;38.97;100276.25;6039078;23;20018;-79
2022/11/15 10:07:22;;;;;;;8.35;1.90;;;;;;;3.36;39.06;100277.63;6073518;23;20029;-82
2022/11/15 10:10:04;;;;;;;9.48;2.40;;;;;;;3.18;39.02;100252.28;6056882;23;20018;-81
2022/11/15 10:12:31;;;;;;;5.57;1.75;;;;;;;2.62;39.15;100147.84;6078398;23;20408;-79
2022/11/15 10:15:09;;;;;;;4.88;1.58;;;;;;;3.35;38.53;100262.16;6075093;23;20032;-81
2022/11/15 10:18:15;;;;;;;9.38;1.83;;;;;;;3.41;39.65;100275.19;6075819;23;20018;-81
2022/11/15 10:20:58;;;;;;;8.75;2.38;;;;;;;2.24;38.78;100063.69;6078410;23;20313;-80
2022/11/15 10:23:48;;;;;;;8.00;1.80;;;;;;;2.38;38.88;100104.34;6104473;23;20022;-81
2022/11/15 10:26:33;;;;;;;6.22;1.95;;;;;;;3.17;39.34;100255.66;6055771;23;20029;-82
2022/11/15 10:29:02;;;;;;;7.82;1.92;;;;;;;2.75;39.62;100132.78;6056897;23;20022;-81
2022/11/15 10:32:01;;;;;;;7.30;1.98;;;;;;;2.21;39.35;100042.19;6051721;23;20026;-82
2022/11/15 10:34:28;;;;;;;9.15;2.58;;;;;;;2.30;39.27;100021.94;6100388;23;20022;-82
2022/11/15 10:37:00;;;;;;;8.75;1.95;;;;;;;3.16;38.81;100166.47;6074884;23;20018;-80
2022/11/15 10:39:27;;;;;;;6.53;2.17;;;;;;;2.79;39.23;100109.78;6056481;23;20018;-81
2022/11/15 10:41:57;;;;;;;9.52;2.10;;;;;;;3.64;39.65;100224.34;6030761;23;20018;-81
2022/11/15 10:44:31;;;;;;;4.78;1.88;;;;;;;2.43;39.25;100014.56;6076113;23;20033;-82
2022/11/15 10:46:57;;;;;;;5.95;2.25;;;;;;;3.16;39.27;100161.34;6077264;23;20105;-82
2022/11/15 10:49:25;;;;;;;5.03;1.88;;;;;;;3.39;39.10;100228.81;6107470;23;20093;-80
2022/11/15 10:51:54;;;;;;;6.78;2.53;;;;;;;3.17;39.52;100212.81;6056460;23;20090;-81
2022/11/15 10:54:23;;;;;;;8.98;2.38;;;;;;;1.83;39.46;100021.41;6054652;23;20119;-82
2022/11/15 10:56:53;;;;;;;8.55;2.20;;;;;;;2.96;40.03;100205.38;6080491;23;20018;-80
2022/11/15 10:59:29;;;;;;;12.32;3.25;;;;;;;3.19;39.72;100212.88;6075956;23;20037;-85
2022/11/15 11:01:55;;;;;;;3.78;1.90;;;;;;;3.21;39.73;100211.19;6032730;23;20014;-82
2022/11/15 11:04:23;;;;;;;7.88;2.28;;;;;;;3.23;39.50;100214.66;6077389;23;20022;-82
2022/11/15 11:07:01;;;;;;;5.90;1.92;;;;;;;3.18;39.67;100185.41;6082640;23;20022;-80
2022/11/15 11:09:42;;;;;;;8.88;2.08;;;;;;;3.20;39.63;100206.84;6093335;23;20031;-79
2022/11/15 11:12:26;;;;;;;5.95;1.58;;;;;;;2.69;39.45;100131.78;6040192;23;20082;-81
2022/11/15 11:14:54;;;;;;;4.47;1.58;;;;;;;2.44;40.03;100083.94;6031613;23;20023;-81
2022/11/15 11:17:49;;;;;;;7.38;1.60;;;;;;;3.08;39.96;100192.00;6068399;23;20026;-82
2022/11/15 11:20:27;;;;;;;7.32;1.85;;;;;;;3.09;40.22;100180.00;6053160;23;20022;-83
2022/11/15 11:23:11;;;;;;;8.25;1.52;;;;;;;3.01;40.32;100179.78;6023475;23;20053;-80
2022/11/15 11:25:51;;;;;;;6.28;1.95;;;;;;;2.86;40.24;100181.09;6045895;23;20026;-81
2022/11/15 11:28:30;;;;;;;5.90;1.52;;;;;;;2.84;40.21;100179.28;6047220;23;20018;-82
2022/11/15 11:31:05;;;;;;;4.57;2.00;;;;;;;2.86;40.13;100175.97;6052436;23;20025;-78
2022/11/15 11:33:36;;;;;;;8.15;2.30;;;;;;;2.87;40.05;100174.25;6054116;23;20022;-83
2022/11/15 11:36:24;;;;;;;4.45;1.83;;;;;;;2.82;40.75;100162.94;6032104;23;20018;-80
2022/11/15 11:39:22;;;;;;;14.73;4.90;;;;;;;2.91;40.26;100175.19;5984883;23;20018;-82
2022/11/15 11:42:04;;;;;;;6.82;2.85;;;;;;;2.50;40.28;100096.13;6012115;23;20019;-80
2022/11/15 11:44:45;;;;;;;7.57;2.30;;;;;;;2.93;40.56;100178.69;6058785;23;20018;-78
2022/11/15 11:47:25;;;;;;;10.40;1.85;;;;;;;2.82;40.11;100168.09;6033278;23;20023;-78
2022/11/15 11:50:01;;;;;;;5.28;1.90;;;;;;;2.62;40.63;100163.25;6056027;23;20073;-78
2022/11/15 11:52:46;;;;;;;6.95;1.50;;;;;;;2.45;40.73;100126.78;6035302;23;20018;-80
2022/11/15 11:55:17;;;;;;;3.17;1.60;;;;;;;2.73;40.95;100160.13;5991430;23;20033;-83
2022/11/15 11:58:02;;;;;;;5.85;1.50;;;;;;;2.77;40.86;100162.84;6036974;23;20023;-83
2022/11/15 12:00:34;;;;;;;4.30;1.83;;;;;;;2.20;40.47;100092.69;6014493;23;20022;-81
2022/11/15 12:03:17;;;;;;;7.45;1.67;;;;;;;2.58;41.41;100169.13;6064931;23;20022;-80
2022/11/15 12:05:46;;;;;;;5.15;1.65;;;;;;;2.18;41.53;100119.13;6017080;23;20085;-78
2022/11/15 12:08:16;;;;;;;6.55;1.70;;;;;;;2.38;42.10;100153.13;6063353;23;20054;-82
2022/11/15 12:10:48;;;;;;;;;;;;;;;2.14;42.22;100118.19;6023920;23;20078;-79
2022/11/15 12:13:26;;;;;;;3.65;1.42;;;;;;;2.41;42.41;100143.81;6071043;23;19916;-81
2022/11/15 12:16:01;;;;;;;5.70;1.65;;;;;;;2.26;42.74;100113.41;6118301;23;20018;-79
2022/11/15 12:18:28;;;;;;;7.10;1.92;;;;;;;2.40;42.44;100157.47;6093884;23;20097;-80
2022/11/15 12:21:45;;;;;;;5.80;2.08;;;;;;;2.30;42.27;100155.47;6069504;23;20022;-82
2022/11/15 12:24:39;;;;;;;9.13;1.60;;;;;;;2.26;43.02;100138.22;6098493;23;20024;-80
2022/11/15 12:27:28;;;;;;;3.50;1.35;;;;;;;2.07;43.08;100106.84;6094774;23;20005;-81
2022/11/15 12:30:02;;;;;;;6.30;1.83;;;;;;;2.01;43.34;100081.00;6094845;23;20050;-80
2022/11/15 12:32:33;;;;;;;4.82;1.63;;;;;;;2.32;43.38;100125.53;6074801;23;20238;-80
2022/11/15 12:35:30;;;;;;;9.00;2.20;;;;;;;2.28;42.97;100128.88;6092801;23;20091;-81
2022/11/15 12:39:02;;;;;;;7.45;1.75;;;;;;;2.20;43.25;100126.09;6095821;23;20025;-81
2022/11/15 12:42:01;;;;;;;5.38;1.42;;;;;;;1.26;43.69;99992.28;6096551;23;20022;-79
2022/11/15 12:44:39;;;;;;;5.40;1.70;;;;;;;1.92;43.86;100127.78;5983324;24;20020;-80
2022/11/15 12:51:00;;;;;;;7.80;1.70;;;;;;;1.46;44.28;100037.38;6096633;23;20018;-80
2022/11/15 12:53:49;;;;;;;9.45;2.47;;;;;;;1.63;44.61;100063.56;6037496;23;20033;-79
2022/11/15 12:56:31;;;;;;;9.63;2.30;;;;;;;1.25;44.42;99994.00;6064849;23;20054;-80
2022/11/15 12:59:02;;;;;;;4.65;1.88;;;;;;;1.16;44.35;99986.88;6109581;23;20022;-82
2022/11/15 13:01:50;;;;;;;6.13;2.10;;;;;;;0.92;44.64;99974.13;6082042;23;20018;-82
2022/11/15 13:04:26;;;;;;;7.07;2.35;;;;;;;1.84;45.03;100129.22;6085631;23;20070;-80
2022/11/15 13:07:02;;;;;;;3.72;2.08;;;;;;;0.83;45.38;99925.16;6107279;23;20038;-79
2022/11/15 13:09:35;;;;;;;4.55;1.90;;;;;;;1.66;45.87;100065.34;6087176;23;20050;-81
2022/11/15 13:12:42;;;;;;;5.65;2.10;;;;;;;1.72;46.40;100093.78;6088132;23;20469;-80
2022/11/15 13:16:15;;;;;;;5.18;1.90;;;;;;;1.59;46.95;100102.78;6096391;23;20042;-80
2022/11/15 13:19:02;;;;;;;4.28;2.05;;;;;;;1.57;47.91;100093.31;6053058;23;20051;-80
2022/11/15 13:25:06;;;;;;;7.50;1.90;;;;;;;0.49;48.31;99896.72;6076317;23;20346;-79
2022/11/15 13:27:50;;;;;;;6.05;2.28;;;;;;;0.24;48.35;99867.75;6054221;23;20025;-79